Time;durP1;ratioP1;P1;durP2;ratioP2;P2;SDS_P1;SDS_P2;PMS_P1;PMS_P2;Temp;Humidity;BMP_temperature;BMP_pressure;BME280_temperature;BME280_humidity;BME280_pressure;Samples;Min_cycle;Max_cycle;Signal;HPM_P1;HPM_P2
2022/03/15 00:00:48;;;;;;;2.13;0.38;;;;;;;;;;4996963;28;20041;-57
2022/03/15 00:03:14;;;;;;;0.20;0.20;;;;;;;;;;4997372;28;20080;-57
2022/03/15 00:05:40;;;;;;;1.25;0.40;;;;;;;;;;4997754;28;20042;-56
2022/03/15 00:08:07;;;;;;;4.70;0.57;;;;;;;;;;5000118;28;20034;-58
2022/03/15 00:10:33;;;;;;;1.73;0.50;;;;;;;;;;4996537;28;20504;-57
2022/03/15 00:12:59;;;;;;;1.85;0.40;;;;;;;;;;4999422;28;20054;-57
2022/03/15 00:15:25;;;;;;;1.50;0.40;;;;;;;;;;4995778;28;20062;-57
2022/03/15 00:17:51;;;;;;;1.40;0.47;;;;;;;;;;4998453;28;20030;-57
2022/03/15 00:20:24;;;;;;;0.77;0.40;;;;;;;;;;4995602;28;20169;-58
2022/03/15 00:22:51;;;;;;;2.83;0.40;;;;;;;;;;4998663;28;20042;-58
2022/03/15 00:25:18;;;;;;;1.60;0.52;;;;;;;;;;5003566;28;20037;-57
2022/03/15 00:27:47;;;;;;;4.03;0.30;;;;;;;;;;5013283;28;20045;-56
2022/03/15 00:30:14;;;;;;;1.70;0.30;;;;;;;;;;4999911;28;20029;-54
2022/03/15 00:32:40;;;;;;;1.25;0.40;;;;;;;;;;5000715;28;20041;-57
2022/03/15 00:35:08;;;;;;;1.77;0.50;;;;;;;;;;5001746;28;20060;-57
2022/03/15 00:37:36;;;;;;;1.42;0.40;;;;;;;;;;5031749;28;20041;-55
2022/03/15 00:40:02;;;;;;;1.83;0.55;;;;;;;;;;5002461;28;20121;-58
2022/03/15 00:42:28;;;;;;;1.73;0.50;;;;;;;;;;5007217;28;20026;-55
2022/03/15 00:44:54;;;;;;;0.60;0.30;;;;;;;;;;5013682;28;20105;-57
2022/03/15 00:47:20;;;;;;;0.40;0.38;;;;;;;;;;5001068;28;20072;-57
2022/03/15 00:49:47;;;;;;;1.33;0.47;;;;;;;;;;5010271;28;20038;-57
2022/03/15 00:52:13;;;;;;;0.77;0.40;;;;;;;;;;5003973;28;20060;-56
2022/03/15 00:54:39;;;;;;;2.03;0.50;;;;;;;;;;4998931;28;20743;-58
2022/03/15 00:57:05;;;;;;;1.85;0.47;;;;;;;;;;5000520;28;20042;-57
2022/03/15 00:59:31;;;;;;;2.38;0.50;;;;;;;;;;4999501;28;20046;-58
2022/03/15 01:01:57;;;;;;;3.97;0.45;;;;;;;;;;4997943;28;20103;-57
2022/03/15 01:04:24;;;;;;;1.65;0.50;;;;;;;;;;5001744;28;20035;-57
2022/03/15 01:06:50;;;;;;;2.50;0.50;;;;;;;;;;5001286;28;20038;-56
2022/03/15 01:09:16;;;;;;;2.08;0.28;;;;;;;;;;5013096;28;20064;-57
2022/03/15 01:11:42;;;;;;;2.72;0.40;;;;;;;;;;4999185;28;20061;-56
2022/03/15 01:14:08;;;;;;;0.88;0.30;;;;;;;;;;4999950;28;20038;-56
2022/03/15 01:16:34;;;;;;;0.82;0.40;;;;;;;;;;4997779;28;20049;-58
2022/03/15 01:19:00;;;;;;;1.95;0.43;;;;;;;;;;4998683;28;20456;-57
2022/03/15 01:21:26;;;;;;;0.82;0.40;;;;;;;;;;5005564;28;20127;-56
2022/03/15 01:23:53;;;;;;;1.23;0.40;;;;;;;;;;5001255;28;20044;-56
2022/03/15 01:26:19;;;;;;;1.50;0.50;;;;;;;;;;4997690;28;20069;-56
2022/03/15 01:28:45;;;;;;;2.08;0.50;;;;;;;;;;4997181;28;20042;-57
2022/03/15 01:31:11;;;;;;;2.88;0.50;;;;;;;;;;5007832;28;20052;-55
2022/03/15 01:33:37;;;;;;;1.83;0.40;;;;;;;;;;4996685;28;20036;-54
2022/03/15 01:36:04;;;;;;;4.25;0.52;;;;;;;;;;4997941;28;20088;-56
2022/03/15 01:38:30;;;;;;;1.23;0.50;;;;;;;;;;4996666;28;20053;-55
2022/03/15 01:40:56;;;;;;;0.65;0.40;;;;;;;;;;4998332;28;20770;-56
2022/03/15 01:43:22;;;;;;;1.15;0.52;;;;;;;;;;4996256;28;20043;-56
2022/03/15 01:45:48;;;;;;;1.45;0.50;;;;;;;;;;4998447;28;20042;-56
2022/03/15 01:48:14;;;;;;;1.02;0.40;;;;;;;;;;5000256;28;20049;-57
2022/03/15 01:50:39;;;;;;;7.05;0.63;;;;;;;;;;4997455;28;20045;-56
2022/03/15 01:53:06;;;;;;;0.50;0.30;;;;;;;;;;4998108;28;20040;-56
2022/03/15 01:55:31;;;;;;;1.35;0.50;;;;;;;;;;4997404;28;20072;-55
2022/03/15 01:57:57;;;;;;;3.38;0.50;;;;;;;;;;4997588;28;20950;-56
2022/03/15 02:00:23;;;;;;;1.38;0.40;;;;;;;;;;4997856;28;20162;-57
2022/03/15 02:02:49;;;;;;;1.23;0.40;;;;;;;;;;4998956;28;20045;-54
2022/03/15 02:05:15;;;;;;;2.95;0.50;;;;;;;;;;4999236;28;20033;-56
2022/03/15 02:07:41;;;;;;;0.75;0.40;;;;;;;;;;4996642;28;20957;-54
2022/03/15 02:10:07;;;;;;;1.58;0.40;;;;;;;;;;4998047;28;20038;-55
2022/03/15 02:12:38;;;;;;;1.00;0.40;;;;;;;;;;4996512;28;20077;-55
2022/03/15 02:15:06;;;;;;;2.20;0.60;;;;;;;;;;4997778;28;20065;-56
2022/03/15 02:17:32;;;;;;;1.33;0.52;;;;;;;;;;4998271;28;20033;-55
2022/03/15 02:19:58;;;;;;;2.00;0.50;;;;;;;;;;4998218;28;20410;-56
2022/03/15 02:22:25;;;;;;;1.20;0.47;;;;;;;;;;4998206;28;20096;-56
2022/03/15 02:24:51;;;;;;;1.55;0.50;;;;;;;;;;5000730;28;21409;-56
2022/03/15 02:27:20;;;;;;;2.28;0.60;;;;;;;;;;4999976;28;20044;-56
2022/03/15 02:29:46;;;;;;;2.13;0.47;;;;;;;;;;5000077;28;20046;-54
2022/03/15 02:32:11;;;;;;;1.83;0.47;;;;;;;;;;4999097;28;20049;-56
2022/03/15 02:34:37;;;;;;;3.00;0.82;;;;;;;;;;4998334;28;20156;-56
2022/03/15 02:37:03;;;;;;;3.92;0.85;;;;;;;;;;4998752;28;20085;-57
2022/03/15 02:39:29;;;;;;;2.08;0.60;;;;;;;;;;4995522;28;22518;-54
2022/03/15 02:41:55;;;;;;;2.35;0.70;;;;;;;;;;4996263;28;20038;-56
2022/03/15 02:44:23;;;;;;;5.97;0.63;;;;;;;;;;4995563;28;20049;-56
2022/03/15 02:46:49;;;;;;;2.75;0.52;;;;;;;;;;4994458;28;20496;-56
2022/03/15 02:49:16;;;;;;;1.25;0.45;;;;;;;;;;4995749;28;20038;-57
2022/03/15 02:51:42;;;;;;;1.52;0.45;;;;;;;;;;4995521;28;20773;-56
2022/03/15 02:54:11;;;;;;;1.27;0.40;;;;;;;;;;4997648;28;20393;-55
2022/03/15 02:56:42;;;;;;;1.13;0.40;;;;;;;;;;4997281;28;20057;-56
2022/03/15 02:59:09;;;;;;;0.73;0.35;;;;;;;;;;4995779;28;20448;-55
2022/03/15 03:01:35;;;;;;;1.48;0.50;;;;;;;;;;4995253;28;20088;-54
2022/03/15 03:04:01;;;;;;;2.17;0.32;;;;;;;;;;4999396;28;20042;-54
2022/03/15 03:06:27;;;;;;;1.85;0.50;;;;;;;;;;4995219;28;20092;-57
2022/03/15 03:08:53;;;;;;;1.45;0.50;;;;;;;;;;4997257;28;20060;-57
2022/03/15 03:11:19;;;;;;;1.55;0.52;;;;;;;;;;4996154;28;20054;-57
2022/03/15 03:13:47;;;;;;;8.07;0.40;;;;;;;;;;5005170;28;20065;-52
2022/03/15 03:16:14;;;;;;;0.70;0.38;;;;;;;;;;4997298;28;20601;-56
2022/03/15 03:18:40;;;;;;;1.15;0.50;;;;;;;;;;4995048;28;20061;-53
2022/03/15 03:21:06;;;;;;;1.75;0.45;;;;;;;;;;4993621;28;20042;-56
2022/03/15 03:23:34;;;;;;;1.20;0.50;;;;;;;;;;4995130;28;20041;-56
2022/03/15 03:26:01;;;;;;;2.67;0.60;;;;;;;;;;4996351;28;20072;-55
2022/03/15 03:28:33;;;;;;;1.65;0.40;;;;;;;;;;4997871;28;20101;-55
2022/03/15 03:31:00;;;;;;;2.10;0.57;;;;;;;;;;5016371;28;20557;-53
2022/03/15 03:33:26;;;;;;;6.40;0.43;;;;;;;;;;5005095;28;20049;-55
2022/03/15 03:35:53;;;;;;;1.30;0.50;;;;;;;;;;4995329;28;20228;-55
2022/03/15 03:38:19;;;;;;;1.60;0.40;;;;;;;;;;5011124;28;20077;-56
2022/03/15 03:40:45;;;;;;;2.28;0.50;;;;;;;;;;4996250;28;20753;-56
2022/03/15 03:43:11;;;;;;;2.08;0.57;;;;;;;;;;4995779;28;20054;-55
2022/03/15 03:45:37;;;;;;;1.40;0.50;;;;;;;;;;4994518;28;20050;-55
2022/03/15 03:48:04;;;;;;;6.00;2.25;;;;;;;;;;4997358;28;20057;-56
2022/03/15 03:50:30;;;;;;;2.28;0.63;;;;;;;;;;4996779;28;20053;-53
2022/03/15 03:52:56;;;;;;;1.67;0.50;;;;;;;;;;4997357;28;20039;-53
2022/03/15 03:55:22;;;;;;;8.00;1.90;;;;;;;;;;4996522;28;20065;-56
2022/03/15 03:57:48;;;;;;;4.93;2.13;;;;;;;;;;4998545;28;20038;-56
2022/03/15 04:00:15;;;;;;;2.88;0.90;;;;;;;;;;5015891;28;20042;-56
2022/03/15 04:02:41;;;;;;;4.28;0.88;;;;;;;;;;5006650;28;20064;-58
2022/03/15 04:05:07;;;;;;;3.65;0.70;;;;;;;;;;4998848;28;20053;-54
2022/03/15 04:07:35;;;;;;;3.08;0.60;;;;;;;;;;5001091;28;20042;-56
2022/03/15 04:10:03;;;;;;;6.65;0.95;;;;;;;;;;5002511;28;20048;-54
2022/03/15 04:12:29;;;;;;;6.13;1.20;;;;;;;;;;4998525;28;20061;-55
2022/03/15 04:14:57;;;;;;;2.85;0.80;;;;;;;;;;5001065;28;20551;-56
2022/03/15 04:17:23;;;;;;;2.50;0.77;;;;;;;;;;4999633;28;20038;-56
2022/03/15 04:19:49;;;;;;;3.92;0.70;;;;;;;;;;5004476;28;20092;-56
2022/03/15 04:22:15;;;;;;;7.30;0.98;;;;;;;;;;4999950;28;20600;-55
2022/03/15 04:24:41;;;;;;;6.88;1.08;;;;;;;;;;5001236;28;20918;-55
2022/03/15 04:27:07;;;;;;;7.35;1.15;;;;;;;;;;5001954;28;20061;-56
2022/03/15 04:29:33;;;;;;;7.65;1.20;;;;;;;;;;4990909;28;20476;-55
2022/03/15 04:31:59;;;;;;;7.88;1.73;;;;;;;;;;4999870;28;20050;-56
2022/03/15 04:34:26;;;;;;;7.75;1.75;;;;;;;;;;5000988;28;20049;-57
2022/03/15 04:36:51;;;;;;;7.50;2.00;;;;;;;;;;4998574;28;20049;-55
2022/03/15 04:39:17;;;;;;;7.65;2.10;;;;;;;;;;5000679;28;20037;-55
2022/03/15 04:41:45;;;;;;;3.83;1.20;;;;;;;;;;5007246;28;20062;-57
2022/03/15 04:44:12;;;;;;;3.38;0.90;;;;;;;;;;5000855;28;20065;-57
2022/03/15 04:46:38;;;;;;;6.68;1.25;;;;;;;;;;4998271;28;20041;-56
2022/03/15 04:49:04;;;;;;;4.15;1.75;;;;;;;;;;5002976;28;20040;-56
2022/03/15 04:51:30;;;;;;;8.40;3.38;;;;;;;;;;5000789;28;20045;-55
2022/03/15 04:53:56;;;;;;;5.80;2.60;;;;;;;;;;5004677;28;20058;-58
2022/03/15 04:56:23;;;;;;;8.77;2.58;;;;;;;;;;4999594;28;20049;-56
2022/03/15 04:58:49;;;;;;;6.88;2.20;;;;;;;;;;4999776;28;20117;-55
2022/03/15 05:01:15;;;;;;;5.70;1.88;;;;;;;;;;5000209;28;20091;-56
2022/03/15 05:03:41;;;;;;;5.20;1.50;;;;;;;;;;4999607;28;20049;-56
2022/03/15 05:06:06;;;;;;;7.70;1.80;;;;;;;;;;4998842;28;20767;-53
2022/03/15 05:08:32;;;;;;;7.40;1.80;;;;;;;;;;4997125;28;20259;-54
2022/03/15 05:11:07;;;;;;;8.75;1.85;;;;;;;;;;4998086;28;20058;-56
2022/03/15 05:13:39;;;;;;;5.47;1.90;;;;;;;;;;4999691;28;20068;-59
2022/03/15 05:16:07;;;;;;;7.03;1.50;;;;;;;;;;4997832;28;20074;-56
2022/03/15 05:18:34;;;;;;;7.13;1.98;;;;;;;;;;5000609;28;20034;-56
2022/03/15 05:21:00;;;;;;;6.72;2.10;;;;;;;;;;5001179;28;20356;-56
2022/03/15 05:23:26;;;;;;;13.95;2.78;;;;;;;;;;5007301;28;20096;-56
2022/03/15 05:25:52;;;;;;;4.53;1.60;;;;;;;;;;5000916;28;20404;-56
2022/03/15 05:28:21;;;;;;;3.00;1.02;;;;;;;;;;4998258;28;20483;-55
2022/03/15 05:30:47;;;;;;;2.95;0.90;;;;;;;;;;4999724;28;20030;-54
2022/03/15 05:33:13;;;;;;;4.00;1.05;;;;;;;;;;4998413;28;20049;-54
2022/03/15 05:35:38;;;;;;;5.55;1.10;;;;;;;;;;4998717;28;20129;-57
2022/03/15 05:38:04;;;;;;;5.50;0.93;;;;;;;;;;4998093;28;20136;-55
2022/03/15 05:40:31;;;;;;;3.05;0.80;;;;;;;;;;4999890;28;20165;-54
2022/03/15 05:42:57;;;;;;;4.93;0.80;;;;;;;;;;5002850;28;20504;-56
2022/03/15 05:45:24;;;;;;;3.40;0.90;;;;;;;;;;5000590;28;20038;-54
2022/03/15 05:47:50;;;;;;;7.75;1.00;;;;;;;;;;5001070;28;22427;-55
2022/03/15 05:50:16;;;;;;;6.72;1.05;;;;;;;;;;5002350;28;20117;-56
2022/03/15 05:52:42;;;;;;;4.80;0.85;;;;;;;;;;5000809;28;20624;-56
2022/03/15 05:55:10;;;;;;;4.82;0.90;;;;;;;;;;5010539;28;20049;-53
2022/03/15 05:57:36;;;;;;;5.15;1.10;;;;;;;;;;5005015;28;20048;-56
2022/03/15 06:00:03;;;;;;;10.13;1.20;;;;;;;;;;5005164;28;20118;-54
2022/03/15 06:02:29;;;;;;;6.60;1.23;;;;;;;;;;5002380;28;20045;-53
2022/03/15 06:04:55;;;;;;;3.85;1.25;;;;;;;;;;5005455;28;20037;-52
2022/03/15 06:07:20;;;;;;;3.65;0.95;;;;;;;;;;5000273;28;20491;-55
2022/03/15 06:09:46;;;;;;;4.25;1.00;;;;;;;;;;5007107;28;20048;-56
2022/03/15 06:12:12;;;;;;;7.20;1.15;;;;;;;;;;4998861;28;20068;-55
2022/03/15 06:14:38;;;;;;;7.07;0.98;;;;;;;;;;4999565;28;20481;-56
2022/03/15 06:17:04;;;;;;;3.97;0.75;;;;;;;;;;5001787;28;20038;-56
2022/03/15 06:19:30;;;;;;;2.20;0.70;;;;;;;;;;4997779;28;20041;-56
2022/03/15 06:21:56;;;;;;;3.22;0.65;;;;;;;;;;4997436;28;20057;-55
2022/03/15 06:24:23;;;;;;;7.43;1.00;;;;;;;;;;4997196;28;22334;-56
2022/03/15 06:26:49;;;;;;;3.00;0.80;;;;;;;;;;4998293;28;20388;-56
2022/03/15 06:29:15;;;;;;;4.13;1.00;;;;;;;;;;4995885;28;20034;-55
2022/03/15 06:31:41;;;;;;;3.83;0.85;;;;;;;;;;5029721;28;20049;-54
2022/03/15 06:34:07;;;;;;;4.68;1.10;;;;;;;;;;5000056;28;21575;-55
2022/03/15 06:36:36;;;;;;;2.85;0.85;;;;;;;;;;4998400;28;20068;-56
2022/03/15 06:39:03;;;;;;;2.00;0.65;;;;;;;;;;4998485;28;20042;-55
2022/03/15 06:41:30;;;;;;;4.25;1.10;;;;;;;;;;4998846;28;20064;-56
2022/03/15 06:43:55;;;;;;;2.60;0.80;;;;;;;;;;4999161;28;20068;-56
2022/03/15 06:46:23;;;;;;;2.92;0.82;;;;;;;;;;4994657;28;20507;-55
2022/03/15 06:48:49;;;;;;;6.82;0.95;;;;;;;;;;4999181;28;20042;-57
2022/03/15 06:51:15;;;;;;;1.77;0.60;;;;;;;;;;5002092;28;20599;-55
2022/03/15 06:53:41;;;;;;;6.82;0.98;;;;;;;;;;5002176;28;20132;-55
2022/03/15 06:56:08;;;;;;;2.38;0.60;;;;;;;;;;4999244;28;20160;-55
2022/03/15 06:58:34;;;;;;;5.63;0.85;;;;;;;;;;4998725;28;20109;-56
2022/03/15 07:01:00;;;;;;;2.20;0.60;;;;;;;;;;4997694;28;20106;-55
2022/03/15 07:03:26;;;;;;;1.77;0.52;;;;;;;;;;5012395;28;20137;-55
2022/03/15 07:05:52;;;;;;;2.40;0.70;;;;;;;;;;4999630;28;20130;-55
2022/03/15 07:08:18;;;;;;;2.53;0.50;;;;;;;;;;4996670;28;20511;-55
2022/03/15 07:10:43;;;;;;;1.77;0.50;;;;;;;;;;4996502;28;20099;-54
2022/03/15 07:13:09;;;;;;;1.73;0.60;;;;;;;;;;4998493;28;20551;-55
2022/03/15 07:15:35;;;;;;;1.55;0.52;;;;;;;;;;4996447;28;20042;-54
2022/03/15 07:18:01;;;;;;;2.28;0.60;;;;;;;;;;4993868;28;20207;-56
2022/03/15 07:20:27;;;;;;;1.85;0.60;;;;;;;;;;4997985;28;20121;-55
2022/03/15 07:22:53;;;;;;;4.00;0.73;;;;;;;;;;4997275;28;20038;-54
2022/03/15 07:25:20;;;;;;;1.92;0.60;;;;;;;;;;4993782;28;20569;-56
2022/03/15 07:27:46;;;;;;;2.28;0.60;;;;;;;;;;4998565;28;20690;-54
2022/03/15 07:30:13;;;;;;;3.50;0.73;;;;;;;;;;4997616;28;20124;-55
2022/03/15 07:32:39;;;;;;;2.85;0.70;;;;;;;;;;4995150;28;20129;-56
2022/03/15 07:35:05;;;;;;;2.20;0.60;;;;;;;;;;4998506;28;21815;-57
2022/03/15 07:37:31;;;;;;;3.88;0.60;;;;;;;;;;4995427;28;20419;-57
2022/03/15 07:39:57;;;;;;;2.53;0.70;;;;;;;;;;4996604;28;20033;-57
2022/03/15 07:42:24;;;;;;;2.20;0.70;;;;;;;;;;4996340;28;20072;-55
2022/03/15 07:44:50;;;;;;;2.00;0.68;;;;;;;;;;4996476;28;20050;-55
2022/03/15 07:47:16;;;;;;;1.58;0.50;;;;;;;;;;4992823;28;20493;-55
2022/03/15 07:49:42;;;;;;;2.72;0.73;;;;;;;;;;4996421;28;20172;-55
2022/03/15 07:52:08;;;;;;;2.00;0.60;;;;;;;;;;4995262;28;20496;-56
2022/03/15 07:54:35;;;;;;;1.65;0.50;;;;;;;;;;4997670;28;20157;-54
2022/03/15 07:57:01;;;;;;;2.22;0.63;;;;;;;;;;4998525;28;20176;-56
2022/03/15 07:59:28;;;;;;;3.53;0.60;;;;;;;;;;4996102;28;20034;-56
2022/03/15 08:01:54;;;;;;;1.48;0.50;;;;;;;;;;4995630;28;20423;-55
2022/03/15 08:04:19;;;;;;;1.27;0.55;;;;;;;;;;4995783;28;20578;-55
2022/03/15 08:06:45;;;;;;;2.35;0.60;;;;;;;;;;4999524;28;20042;-55
2022/03/15 08:09:13;;;;;;;2.70;0.70;;;;;;;;;;4996450;28;20050;-56
2022/03/15 08:11:40;;;;;;;2.50;0.70;;;;;;;;;;4995644;28;20046;-55
2022/03/15 08:14:07;;;;;;;2.53;0.68;;;;;;;;;;4997868;28;20037;-55
2022/03/15 08:16:33;;;;;;;1.63;0.60;;;;;;;;;;4998441;28;20104;-55
2022/03/15 08:18:58;;;;;;;1.98;0.60;;;;;;;;;;4996746;28;20121;-54
2022/03/15 08:21:26;;;;;;;1.98;0.60;;;;;;;;;;4997063;28;20062;-56
2022/03/15 08:23:52;;;;;;;1.77;0.55;;;;;;;;;;4995828;28;20049;-55
2022/03/15 08:26:18;;;;;;;4.28;0.90;;;;;;;;;;4996270;28;20066;-55
2022/03/15 08:28:48;;;;;;;3.97;1.10;;;;;;;;;;4998137;28;20290;-55
2022/03/15 08:31:15;;;;;;;3.60;0.85;;;;;;;;;;5011540;28;20084;-54
2022/03/15 08:33:41;;;;;;;3.78;0.90;;;;;;;;;;4995647;28;20045;-54
2022/03/15 08:36:08;;;;;;;9.35;1.25;;;;;;;;;;4995413;28;20050;-54
2022/03/15 08:38:34;;;;;;;3.33;0.88;;;;;;;;;;4996077;28;20034;-54
2022/03/15 08:41:00;;;;;;;11.93;1.30;;;;;;;;;;4996204;28;20046;-55
2022/03/15 08:43:26;;;;;;;9.77;1.02;;;;;;;;;;4997867;28;20068;-54
2022/03/15 08:45:52;;;;;;;4.65;0.93;;;;;;;;;;4999071;28;20049;-53
2022/03/15 08:48:19;;;;;;;5.20;0.95;;;;;;;;;;4997722;28;20073;-55
2022/03/15 08:50:44;;;;;;;13.05;1.08;;;;;;;;;;4998970;28;20064;-55
2022/03/15 08:53:11;;;;;;;3.05;0.93;;;;;;;;;;5000460;28;20492;-55
2022/03/15 08:55:36;;;;;;;4.68;1.00;;;;;;;;;;4999116;28;20045;-55
2022/03/15 08:58:02;;;;;;;3.15;1.10;;;;;;;;;;5007169;28;20050;-56
2022/03/15 09:00:28;;;;;;;3.22;0.95;;;;;;;;;;4995855;28;20034;-56
2022/03/15 09:02:54;;;;;;;3.40;1.00;;;;;;;;;;4999595;28;20657;-56
2022/03/15 09:05:20;;;;;;;4.35;0.90;;;;;;;;;;4997629;28;20674;-57
2022/03/15 09:07:49;;;;;;;3.40;0.90;;;;;;;;;;4999613;28;20054;-56
2022/03/15 09:10:15;;;;;;;4.25;0.90;;;;;;;;;;5000232;28;20500;-56
2022/03/15 09:12:41;;;;;;;2.30;0.75;;;;;;;;;;4998878;28;20058;-55
2022/03/15 09:15:07;;;;;;;2.72;0.95;;;;;;;;;;5001291;28;20054;-56
2022/03/15 09:17:33;;;;;;;3.22;0.90;;;;;;;;;;4999387;28;20030;-56
2022/03/15 09:19:58;;;;;;;4.55;1.10;;;;;;;;;;4998867;28;20037;-55
2022/03/15 09:22:24;;;;;;;5.35;1.05;;;;;;;;;;4996686;28;20042;-55
2022/03/15 09:24:50;;;;;;;3.25;0.75;;;;;;;;;;5000316;28;20408;-55
2022/03/15 09:27:16;;;;;;;4.05;1.00;;;;;;;;;;5000105;28;20052;-55
2022/03/15 09:29:42;;;;;;;2.25;0.77;;;;;;;;;;5001149;28;20081;-55
2022/03/15 09:32:10;;;;;;;3.40;0.80;;;;;;;;;;4998319;28;20042;-55
2022/03/15 09:34:37;;;;;;;2.35;0.80;;;;;;;;;;4999123;28;20064;-55
2022/03/15 09:37:04;;;;;;;2.58;0.70;;;;;;;;;;4999067;28;20065;-55
2022/03/15 09:39:30;;;;;;;2.20;0.70;;;;;;;;;;4997061;28;20052;-56
2022/03/15 09:41:58;;;;;;;4.82;0.80;;;;;;;;;;4999383;28;20180;-53
2022/03/15 09:44:26;;;;;;;2.08;0.57;;;;;;;;;;4998828;28;20041;-55
2022/03/15 09:46:54;;;;;;;1.30;0.50;;;;;;;;;;4999569;28;20044;-55
2022/03/15 09:49:21;;;;;;;3.83;0.93;;;;;;;;;;4999224;28;20054;-55
2022/03/15 09:51:47;;;;;;;2.40;0.70;;;;;;;;;;5012115;28;20053;-55
2022/03/15 09:54:13;;;;;;;1.88;0.73;;;;;;;;;;5030962;28;20039;-52
2022/03/15 09:56:40;;;;;;;3.03;0.68;;;;;;;;;;5000142;28;20050;-52
2022/03/15 09:59:16;;;;;;;5.35;0.82;;;;;;;;;;4998567;28;20871;-55
2022/03/15 10:01:43;;;;;;;2.33;0.75;;;;;;;;;;4999459;28;20160;-54
2022/03/15 10:04:09;;;;;;;2.35;0.68;;;;;;;;;;4999320;28;20050;-55
2022/03/15 10:06:38;;;;;;;2.13;0.60;;;;;;;;;;5001091;28;20083;-54
2022/03/15 10:09:05;;;;;;;4.93;0.80;;;;;;;;;;5000058;28;20156;-56
2022/03/15 10:11:31;;;;;;;1.83;0.60;;;;;;;;;;4997289;28;20069;-57
2022/03/15 10:13:58;;;;;;;2.80;0.80;;;;;;;;;;4999010;28;20048;-56
2022/03/15 10:16:30;;;;;;;2.85;0.70;;;;;;;;;;4998333;28;20054;-55
2022/03/15 10:18:57;;;;;;;2.10;0.70;;;;;;;;;;4998039;28;20141;-56
2022/03/15 10:21:25;;;;;;;1.83;0.65;;;;;;;;;;4997061;28;20570;-55
2022/03/15 10:23:54;;;;;;;4.40;0.70;;;;;;;;;;4998842;28;20460;-55
2022/03/15 10:26:24;;;;;;;1.95;0.55;;;;;;;;;;4994440;28;20271;-56
2022/03/15 10:28:53;;;;;;;2.03;0.65;;;;;;;;;;4996058;28;20042;-55
2022/03/15 10:31:22;;;;;;;3.40;0.70;;;;;;;;;;4997460;28;20037;-57
2022/03/15 10:33:50;;;;;;;2.65;0.70;;;;;;;;;;4997221;28;20037;-55
2022/03/15 10:36:17;;;;;;;2.50;0.75;;;;;;;;;;5000162;28;20049;-55
2022/03/15 10:38:51;;;;;;;2.00;0.60;;;;;;;;;;5000332;28;20035;-56
2022/03/15 10:41:17;;;;;;;4.18;0.90;;;;;;;;;;5000992;28;20081;-54
2022/03/15 10:43:44;;;;;;;1.80;0.60;;;;;;;;;;5000515;28;20034;-55
2022/03/15 10:46:12;;;;;;;2.03;0.65;;;;;;;;;;5003439;28;20112;-54
2022/03/15 10:48:38;;;;;;;2.33;0.60;;;;;;;;;;5004861;28;20120;-55
2022/03/15 10:51:14;;;;;;;2.75;0.80;;;;;;;;;;4999510;28;20073;-54
2022/03/15 10:53:42;;;;;;;1.98;0.63;;;;;;;;;;5011878;28;20121;-55
2022/03/15 10:56:08;;;;;;;2.10;0.68;;;;;;;;;;4999622;28;20642;-54
2022/03/15 10:58:34;;;;;;;3.95;0.90;;;;;;;;;;4996873;28;20866;-55
2022/03/15 11:01:00;;;;;;;5.68;0.70;;;;;;;;;;4997568;28;20037;-56
2022/03/15 11:03:29;;;;;;;2.22;0.63;;;;;;;;;;4995907;28;20391;-55
2022/03/15 11:05:57;;;;;;;2.58;0.60;;;;;;;;;;4995165;28;20680;-55
2022/03/15 11:08:23;;;;;;;3.33;0.90;;;;;;;;;;4997548;28;20377;-56
2022/03/15 11:10:50;;;;;;;1.80;0.60;;;;;;;;;;4994382;28;20064;-56
2022/03/15 11:13:17;;;;;;;1.95;0.60;;;;;;;;;;5004720;28;20038;-56
2022/03/15 11:15:53;;;;;;;2.33;0.80;;;;;;;;;;4997915;28;20061;-54
2022/03/15 11:18:19;;;;;;;2.47;0.90;;;;;;;;;;4996672;28;20049;-56
2022/03/15 11:20:46;;;;;;;2.95;1.10;;;;;;;;;;4995458;28;20053;-55
2022/03/15 11:23:13;;;;;;;2.63;1.10;;;;;;;;;;4997410;28;20113;-56
2022/03/15 11:25:44;;;;;;;3.15;1.17;;;;;;;;;;4995450;28;20042;-56
2022/03/15 11:28:12;;;;;;;4.90;1.10;;;;;;;;;;4998861;28;20543;-56
2022/03/15 11:30:39;;;;;;;2.30;0.70;;;;;;;;;;4997098;28;20056;-56
2022/03/15 11:33:05;;;;;;;2.25;0.85;;;;;;;;;;4997310;28;20041;-56
2022/03/15 11:35:35;;;;;;;2.00;0.70;;;;;;;;;;4998242;28;20122;-58
2022/03/15 11:38:04;;;;;;;8.30;1.00;;;;;;;;;;4997493;28;20800;-56
2022/03/15 11:40:31;;;;;;;2.50;0.80;;;;;;;;;;4998528;28;20074;-56
2022/03/15 11:43:17;;;;;;;2.67;0.88;;;;;;;;;;4999893;28;20574;-56
2022/03/15 11:46:00;;;;;;;3.65;0.82;;;;;;;;;;4988326;28;20092;-53
2022/03/15 11:48:44;;;;;;;3.80;1.03;;;;;;;;;;4997186;28;20034;-56
2022/03/15 11:51:40;;;;;;;2.58;0.98;;;;;;;;;;4999628;28;20046;-55
2022/03/15 11:54:08;;;;;;;3.55;0.80;;;;;;;;;;4996918;28;20038;-56
2022/03/15 11:56:38;;;;;;;2.60;0.80;;;;;;;;;;5001514;28;20061;-52
2022/03/15 11:59:04;;;;;;;2.45;0.80;;;;;;;;;;5002812;28;20038;-55
2022/03/15 12:01:31;;;;;;;2.47;0.77;;;;;;;;;;5001564;28;20038;-55
2022/03/15 12:03:58;;;;;;;2.88;0.90;;;;;;;;;;4997750;28;20062;-55
2022/03/15 12:06:28;;;;;;;3.20;0.80;;;;;;;;;;4996332;28;20089;-55
2022/03/15 12:08:55;;;;;;;3.30;0.85;;;;;;;;;;4997279;28;20042;-53
2022/03/15 12:11:28;;;;;;;2.75;0.90;;;;;;;;;;4995392;28;20137;-56
2022/03/15 12:14:01;;;;;;;2.70;0.80;;;;;;;;;;4997382;28;20138;-55
2022/03/15 12:16:34;;;;;;;2.70;0.75;;;;;;;;;;4995428;28;20053;-55
2022/03/15 12:19:39;;;;;;;5.07;0.80;;;;;;;;;;4999362;28;20107;-56
2022/03/15 12:22:04;;;;;;;2.80;0.90;;;;;;;;;;4985990;28;20046;-57
2022/03/15 12:24:31;;;;;;;2.65;0.90;;;;;;;;;;5004045;28;20038;-53
2022/03/15 12:27:00;;;;;;;3.63;1.10;;;;;;;;;;5003337;28;20045;-56
2022/03/15 12:29:29;;;;;;;3.63;0.95;;;;;;;;;;5012084;28;20045;-53
2022/03/15 12:31:56;;;;;;;3.20;0.80;;;;;;;;;;4980371;28;20049;-55
2022/03/15 12:34:22;;;;;;;7.57;2.13;;;;;;;;;;4998795;28;20038;-53
2022/03/15 12:36:51;;;;;;;5.25;0.98;;;;;;;;;;4996954;28;20103;-56
2022/03/15 12:39:18;;;;;;;2.60;0.80;;;;;;;;;;5029287;28;20038;-55
2022/03/15 12:41:45;;;;;;;3.53;1.00;;;;;;;;;;4997169;28;20041;-55
2022/03/15 12:44:11;;;;;;;2.10;0.80;;;;;;;;;;4999086;28;20049;-56
2022/03/15 12:46:37;;;;;;;2.08;0.68;;;;;;;;;;4997292;28;20349;-56
2022/03/15 12:49:07;;;;;;;2.78;0.82;;;;;;;;;;4999324;28;20096;-57
2022/03/15 12:51:41;;;;;;;3.35;1.00;;;;;;;;;;4999383;28;20118;-54
2022/03/15 12:54:10;;;;;;;4.13;1.10;;;;;;;;;;4998817;28;20084;-56
2022/03/15 12:56:47;;;;;;;4.07;0.90;;;;;;;;;;4999442;28;20089;-54
2022/03/15 12:59:17;;;;;;;2.63;0.88;;;;;;;;;;5000156;28;20053;-58
2022/03/15 13:01:46;;;;;;;4.30;1.00;;;;;;;;;;4997749;28;20049;-55
2022/03/15 13:04:13;;;;;;;2.83;0.85;;;;;;;;;;4999955;28;20039;-56
2022/03/15 13:06:41;;;;;;;2.75;1.10;;;;;;;;;;4999724;28;20034;-56
2022/03/15 13:09:07;;;;;;;3.75;1.25;;;;;;;;;;5000851;28;20169;-55
2022/03/15 13:11:43;;;;;;;3.30;1.20;;;;;;;;;;4997772;28;20050;-56
2022/03/15 13:14:09;;;;;;;3.58;0.95;;;;;;;;;;4998218;28;20606;-55
2022/03/15 13:16:35;;;;;;;3.22;1.00;;;;;;;;;;4999732;28;20060;-56
2022/03/15 13:19:01;;;;;;;5.88;1.20;;;;;;;;;;5000786;28;20420;-55
2022/03/15 13:21:29;;;;;;;3.38;1.30;;;;;;;;;;4997337;28;20061;-55
2022/03/15 13:23:57;;;;;;;4.45;1.27;;;;;;;;;;5000107;28;20030;-56
2022/03/15 13:26:24;;;;;;;5.28;1.40;;;;;;;;;;4998279;28;20073;-56
2022/03/15 13:28:51;;;;;;;3.25;1.20;;;;;;;;;;4999722;28;20041;-56
2022/03/15 13:31:17;;;;;;;6.63;1.40;;;;;;;;;;4999684;28;20144;-56
2022/03/15 13:33:45;;;;;;;4.28;1.40;;;;;;;;;;4998932;28;20031;-56
2022/03/15 13:36:10;;;;;;;7.85;1.42;;;;;;;;;;4999725;28;20050;-53
2022/03/15 13:38:44;;;;;;;4.53;1.58;;;;;;;;;;5014299;28;20049;-55
2022/03/15 13:41:10;;;;;;;5.10;1.50;;;;;;;;;;5001663;28;20529;-56
2022/03/15 13:43:43;;;;;;;8.20;1.80;;;;;;;;;;4999822;28;21041;-55
2022/03/15 13:46:09;;;;;;;6.28;1.70;;;;;;;;;;5001114;28;20034;-57
2022/03/15 13:48:40;;;;;;;10.27;1.80;;;;;;;;;;5002414;28;20451;-55
2022/03/15 13:51:07;;;;;;;6.47;1.55;;;;;;;;;;4998282;28;20042;-56
2022/03/15 13:53:35;;;;;;;5.15;1.30;;;;;;;;;;4996733;28;20086;-54
2022/03/15 13:56:08;;;;;;;4.75;1.55;;;;;;;;;;4999897;28;20050;-58
2022/03/15 13:58:34;;;;;;;4.45;1.30;;;;;;;;;;4999137;28;20040;-55
2022/03/15 14:01:01;;;;;;;6.65;1.30;;;;;;;;;;4997500;28;20536;-55
2022/03/15 14:03:29;;;;;;;3.70;1.42;;;;;;;;;;4998254;28;20433;-55
2022/03/15 14:06:00;;;;;;;3.88;1.55;;;;;;;;;;4998837;28;20050;-57
2022/03/15 14:08:26;;;;;;;3.92;1.27;;;;;;;;;;4998120;28;20112;-57
2022/03/15 14:10:54;;;;;;;3.70;1.25;;;;;;;;;;4998814;28;20034;-57
2022/03/15 14:13:22;;;;;;;4.68;1.70;;;;;;;;;;4999141;28;20045;-56
2022/03/15 14:15:49;;;;;;;4.82;1.33;;;;;;;;;;5003240;28;20052;-55
2022/03/15 14:18:25;;;;;;;4.38;1.50;;;;;;;;;;5003067;28;20496;-56
2022/03/15 14:20:51;;;;;;;6.60;1.48;;;;;;;;;;5000546;28;20053;-56
2022/03/15 14:23:17;;;;;;;5.32;1.50;;;;;;;;;;4997228;28;20419;-55
2022/03/15 14:25:44;;;;;;;6.18;1.42;;;;;;;;;;4996868;28;20042;-55
2022/03/15 14:28:14;;;;;;;3.03;1.20;;;;;;;;;;4999096;28;20066;-55
2022/03/15 14:30:40;;;;;;;3.28;1.35;;;;;;;;;;4998009;28;20041;-56
2022/03/15 14:33:07;;;;;;;5.22;1.52;;;;;;;;;;4997930;28;20038;-56
2022/03/15 14:35:36;;;;;;;10.32;1.65;;;;;;;;;;5013364;28;20119;-55
2022/03/15 14:38:11;;;;;;;6.82;1.33;;;;;;;;;;5001224;28;20121;-56
2022/03/15 14:40:40;;;;;;;3.83;1.52;;;;;;;;;;5010187;28;20100;-56
2022/03/15 14:43:06;;;;;;;6.22;1.60;;;;;;;;;;4997125;28;20042;-56